Terminal Aerodrome Forecast
Issued by NWS

Home | Current Version | Previous Version | Text Only | Print | Product List | Glossary On
Versions: 1 2 3 4 5 6 7 8 9 10 11 12 13 14 15 16 17
000
FTUS45 KRIW 292300
TAFCOD
TAF
KCOD 292324Z 3000/3024 03007KT P6SM SCT030 BKN050
     FM300300 18005KT P6SM SCT050 BKN080
     FM301000 VRB06KT P6SM SCT080
     FM302200 VRB12G20KT P6SM VCTS SCT030CB BKN060
      AMD LTD TO CLD VIS AND WIND=

USA.gov is the U.S. government's official web portal to all federal, state and local government web resources and services.